PWSweather.com
Personal Weather Stations
Station Observations
KKYBOWLI8
Greystone Ii, Bowling Green, KY 42101

Greystone IiBowling Green, KY 42101

Lat: 36.9238, Lon: -86.5206

Elevation: 600

Station Type: Davis Vantage Pro2

www.sokyweather.com

High Low Average
Temperature 51.9°F11.1°C 33.0°F0.6°C 43.1°F6.2°C
Dew Point 49.4°F9.7°C 33.0°F0.6°C 42.2°F5.7°C
Winds 7.0 mph 11.3 kmh Calm Calm 3.0 mph ENE4.8 kmh ENE
Wind Gusts 12.0 mph19.3 kmh 2.0 mph3.2 kmh 8.0 mph12.9 kmh
Humidity 100% 83% 97%
Pressure 29.98 in1015.2 mb 29.83 in1010.2 mb -
Precipitation 0.65 in16.5 mm - -
Hour Temp Dew Point Humidity Winds Wind Gusts Pressure Precip Precip Rate Daily Precip Total
12:00 AM 43.5°F6.4°C 43.0°F6.1°C 98% Calm Calm 3.0 mph4.8 kmh 29.97 in1014.9 mb 0.00 in0.0 mm 0.00 in0.0 mm 0.00 in0.0 mm
12:10 AM 43.5°F6.4°C 43.2°F6.2°C 99% Calm Calm 5.0 mph8.0 kmh 29.96 in1014.6 mb 0.00 in0.0 mm 0.00 in0.0 mm 0.00 in0.0 mm
12:20 AM 43.4°F6.3°C 43.1°F6.2°C 99% 0.3 mph E0.5 kmh E 5.0 mph8.0 kmh 29.96 in1014.6 mb 0.00 in0.0 mm 0.00 in0.0 mm 0.00 in0.0 mm
12:30 AM 43.4°F6.3°C 43.1°F6.2°C 99% 0.7 mph E1.1 kmh E 3.0 mph4.8 kmh 29.96 in1014.6 mb 0.00 in0.0 mm 0.00 in0.0 mm 0.00 in0.0 mm
12:40 AM 43.2°F6.2°C 42.9°F6.1°C 99% 0.6 mph E1.0 kmh E 2.0 mph3.2 kmh 29.96 in1014.6 mb 0.00 in0.0 mm 0.00 in0.0 mm 0.00 in0.0 mm
12:50 AM 43.2°F6.2°C 42.9°F6.1°C 99% 0.1 mph E0.2 kmh E 3.0 mph4.8 kmh 29.96 in1014.6 mb 0.00 in0.0 mm 0.00 in0.0 mm 0.00 in0.0 mm
01:00 AM 43.1°F6.2°C 42.8°F6.0°C 99% 0.3 mph E0.5 kmh E 5.0 mph8.0 kmh 29.96 in1014.6 mb 0.00 in0.0 mm 0.00 in0.0 mm 0.00 in0.0 mm
01:10 AM 43.1°F6.2°C 43.1°F6.2°C 100% 0.7 mph E1.1 kmh E 5.0 mph8.0 kmh 29.96 in1014.6 mb 0.00 in0.0 mm 0.00 in0.0 mm 0.00 in0.0 mm
01:20 AM 42.9°F6.1°C 42.9°F6.1°C 100% 0.7 mph E1.1 kmh E 3.0 mph4.8 kmh 29.96 in1014.6 mb 0.00 in0.0 mm 0.00 in0.0 mm 0.00 in0.0 mm
01:30 AM 42.9°F6.1°C 42.9°F6.1°C 100% 0.4 mph ESE0.6 kmh ESE 4.0 mph6.4 kmh 29.96 in1014.6 mb 0.00 in0.0 mm 0.00 in0.0 mm 0.00 in0.0 mm
01:40 AM 42.8°F6.0°C 42.8°F6.0°C 100% Calm Calm 3.0 mph4.8 kmh 29.96 in1014.6 mb 0.00 in0.0 mm 0.00 in0.0 mm 0.00 in0.0 mm
01:50 AM 42.6°F5.9°C 42.6°F5.9°C 100% 0.8 mph ESE1.3 kmh ESE 3.0 mph4.8 kmh 29.96 in1014.6 mb 0.00 in0.0 mm 0.00 in0.0 mm 0.00 in0.0 mm
02:00 AM 42.6°F5.9°C 42.6°F5.9°C 100% 1.2 mph ESE1.9 kmh ESE 4.0 mph6.4 kmh 29.95 in1014.2 mb 0.00 in0.0 mm 0.00 in0.0 mm 0.00 in0.0 mm
02:10 AM 42.8°F6.0°C 42.8°F6.0°C 100% 1.3 mph ESE2.1 kmh ESE 4.0 mph6.4 kmh 29.95 in1014.2 mb 0.00 in0.0 mm 0.00 in0.0 mm 0.00 in0.0 mm
02:20 AM 42.8°F6.0°C 42.8°F6.0°C 100% Calm Calm 4.0 mph6.4 kmh 29.96 in1014.6 mb 0.00 in0.0 mm 0.00 in0.0 mm 0.00 in0.0 mm
02:30 AM 42.8°F6.0°C 42.8°F6.0°C 100% Calm Calm 4.0 mph6.4 kmh 29.96 in1014.6 mb 0.00 in0.0 mm 0.00 in0.0 mm 0.00 in0.0 mm
02:40 AM 42.8°F6.0°C 42.8°F6.0°C 100% Calm Calm 3.0 mph4.8 kmh 29.96 in1014.6 mb 0.00 in0.0 mm 0.00 in0.0 mm 0.00 in0.0 mm
02:50 AM 42.8°F6.0°C 42.8°F6.0°C 100% Calm Calm 2.0 mph3.2 kmh 29.94 in1013.9 mb 0.00 in0.0 mm 0.00 in0.0 mm 0.00 in0.0 mm
03:00 AM 43.1°F6.2°C 43.1°F6.2°C 100% 0.4 mph ESE0.6 kmh ESE 5.0 mph8.0 kmh 29.95 in1014.2 mb 0.00 in0.0 mm 0.00 in0.0 mm 0.00 in0.0 mm
03:10 AM 43.1°F6.2°C 43.1°F6.2°C 100% 1.0 mph E1.6 kmh E 6.0 mph9.7 kmh 29.94 in1013.9 mb 0.00 in0.0 mm 0.00 in0.0 mm 0.00 in0.0 mm
03:20 AM 43.1°F6.2°C 43.1°F6.2°C 100% 1.1 mph E1.8 kmh E 6.0 mph9.7 kmh 29.94 in1013.9 mb 0.00 in0.0 mm 0.00 in0.0 mm 0.00 in0.0 mm
03:30 AM 43.1°F6.2°C 43.1°F6.2°C 100% 2.0 mph E3.2 kmh E 6.0 mph9.7 kmh 29.94 in1013.9 mb 0.00 in0.0 mm 0.00 in0.0 mm 0.00 in0.0 mm
03:40 AM 43.1°F6.2°C 43.1°F6.2°C 100% 1.0 mph E1.6 kmh E 6.0 mph9.7 kmh 29.94 in1013.9 mb 0.00 in0.0 mm 0.00 in0.0 mm 0.00 in0.0 mm
03:50 AM 43.1°F6.2°C 43.1°F6.2°C 100% 1.0 mph E1.6 kmh E 6.0 mph9.7 kmh 29.93 in1013.5 mb 0.00 in0.0 mm 0.00 in0.0 mm 0.00 in0.0 mm
04:00 AM 43.1°F6.2°C 43.1°F6.2°C 100% 1.6 mph E2.6 kmh E 6.0 mph9.7 kmh 29.94 in1013.9 mb 0.00 in0.0 mm 0.00 in0.0 mm 0.00 in0.0 mm
04:10 AM 43.1°F6.2°C 43.1°F6.2°C 100% 1.3 mph E2.1 kmh E 6.0 mph9.7 kmh 29.94 in1013.9 mb 0.00 in0.0 mm 0.00 in0.0 mm 0.00 in0.0 mm
04:20 AM 43.1°F6.2°C 42.8°F6.0°C 99% 2.1 mph E3.4 kmh E 6.0 mph9.7 kmh 29.94 in1013.9 mb 0.00 in0.0 mm 0.00 in0.0 mm 0.00 in0.0 mm
04:30 AM 43.1°F6.2°C 42.8°F6.0°C 99% 1.9 mph ENE3.1 kmh ENE 6.0 mph9.7 kmh 29.95 in1014.2 mb 0.00 in0.0 mm 0.00 in0.0 mm 0.00 in0.0 mm
04:40 AM 43.1°F6.2°C 42.6°F5.9°C 98% 2.0 mph NE3.2 kmh NE 7.0 mph11.3 kmh 29.95 in1014.2 mb 0.00 in0.0 mm 0.00 in0.0 mm 0.00 in0.0 mm
04:50 AM 43.1°F6.2°C 42.6°F5.9°C 98% 1.1 mph NE1.8 kmh NE 5.0 mph8.0 kmh 29.95 in1014.2 mb 0.00 in0.0 mm 0.00 in0.0 mm 0.00 in0.0 mm
05:00 AM 43.1°F6.2°C 42.6°F5.9°C 98% 1.0 mph E1.6 kmh E 5.0 mph8.0 kmh 29.94 in1013.9 mb 0.00 in0.0 mm 0.00 in0.0 mm 0.00 in0.0 mm
05:10 AM 42.9°F6.1°C 42.4°F5.8°C 98% 1.2 mph E1.9 kmh E 7.0 mph11.3 kmh 29.94 in1013.9 mb 0.00 in0.0 mm 0.00 in0.0 mm 0.00 in0.0 mm
05:20 AM 42.9°F6.1°C 42.4°F5.8°C 98% 2.0 mph E3.2 kmh E 7.0 mph11.3 kmh 29.95 in1014.2 mb 0.00 in0.0 mm 0.00 in0.0 mm 0.00 in0.0 mm
05:30 AM 42.9°F6.1°C 42.4°F5.8°C 98% 2.6 mph E4.2 kmh E 11.0 mph17.7 kmh 29.95 in1014.2 mb 0.00 in0.0 mm 0.00 in0.0 mm 0.00 in0.0 mm
05:40 AM 42.8°F6.0°C 42.3°F5.7°C 98% 2.2 mph E3.5 kmh E 11.0 mph17.7 kmh 29.95 in1014.2 mb 0.00 in0.0 mm 0.00 in0.0 mm 0.00 in0.0 mm
05:50 AM 42.6°F5.9°C 42.1°F5.6°C 98% 2.0 mph ENE3.2 kmh ENE 7.0 mph11.3 kmh 29.95 in1014.2 mb 0.00 in0.0 mm 0.00 in0.0 mm 0.00 in0.0 mm
06:00 AM 42.5°F5.8°C 42.0°F5.6°C 98% 2.0 mph ESE3.2 kmh ESE 7.0 mph11.3 kmh 29.95 in1014.2 mb 0.00 in0.0 mm 0.00 in0.0 mm 0.00 in0.0 mm
06:10 AM 42.4°F5.8°C 41.9°F5.5°C 98% 2.0 mph E3.2 kmh E 9.0 mph14.5 kmh 29.94 in1013.9 mb 0.00 in0.0 mm 0.00 in0.0 mm 0.00 in0.0 mm
06:20 AM 42.4°F5.8°C 41.9°F5.5°C 98% 2.5 mph E4.0 kmh E 9.0 mph14.5 kmh 29.94 in1013.9 mb 0.00 in0.0 mm 0.00 in0.0 mm 0.00 in0.0 mm
06:30 AM 42.2°F5.7°C 41.7°F5.4°C 98% 2.9 mph E4.7 kmh E 9.0 mph14.5 kmh 29.95 in1014.2 mb 0.00 in0.0 mm 0.00 in0.0 mm 0.00 in0.0 mm
06:40 AM 42.1°F5.6°C 41.8°F5.4°C 99% 1.4 mph E2.3 kmh E 7.0 mph11.3 kmh 29.94 in1013.9 mb 0.00 in0.0 mm 0.00 in0.0 mm 0.00 in0.0 mm
06:50 AM 41.9°F5.5°C 41.6°F5.3°C 99% 1.9 mph NE3.1 kmh NE 6.0 mph9.7 kmh 29.94 in1013.9 mb 0.00 in0.0 mm 0.00 in0.0 mm 0.00 in0.0 mm
07:00 AM 41.9°F5.5°C 41.6°F5.3°C 99% 2.5 mph ENE4.0 kmh ENE 7.0 mph11.3 kmh 29.94 in1013.9 mb 0.00 in0.0 mm 0.00 in0.0 mm 0.00 in0.0 mm
07:10 AM 41.9°F5.5°C 41.6°F5.3°C 99% 1.8 mph E2.9 kmh E 5.0 mph8.0 kmh 29.95 in1014.2 mb 0.00 in0.0 mm 0.00 in0.0 mm 0.00 in0.0 mm
07:20 AM 41.9°F5.5°C 41.6°F5.3°C 99% 1.5 mph NE2.4 kmh NE 7.0 mph11.3 kmh 29.94 in1013.9 mb 0.00 in0.0 mm 0.00 in0.0 mm 0.00 in0.0 mm
07:30 AM 41.8°F5.4°C 41.5°F5.3°C 99% 1.5 mph NE2.4 kmh NE 6.0 mph9.7 kmh 29.94 in1013.9 mb 0.00 in0.0 mm 0.00 in0.0 mm 0.00 in0.0 mm
07:40 AM 41.9°F5.5°C 41.6°F5.3°C 99% 2.4 mph ENE3.9 kmh ENE 6.0 mph9.7 kmh 29.95 in1014.2 mb 0.00 in0.0 mm 0.00 in0.0 mm 0.00 in0.0 mm
07:50 AM 42.1°F5.6°C 41.6°F5.3°C 98% 2.0 mph NE3.2 kmh NE 5.0 mph8.0 kmh 29.95 in1014.2 mb 0.00 in0.0 mm 0.00 in0.0 mm 0.00 in0.0 mm
08:00 AM 42.5°F5.8°C 42.0°F5.6°C 98% 2.3 mph E3.7 kmh E 9.0 mph14.5 kmh 29.95 in1014.2 mb 0.00 in0.0 mm 0.00 in0.0 mm 0.00 in0.0 mm
08:10 AM 42.5°F5.8°C 42.0°F5.6°C 98% 2.1 mph ENE3.4 kmh ENE 9.0 mph14.5 kmh 29.94 in1013.9 mb 0.00 in0.0 mm 0.00 in0.0 mm 0.00 in0.0 mm
08:20 AM 42.4°F5.8°C 41.6°F5.3°C 97% 3.0 mph ENE4.8 kmh ENE 9.0 mph14.5 kmh 29.93 in1013.5 mb 0.00 in0.0 mm 0.00 in0.0 mm 0.00 in0.0 mm
08:30 AM 42.5°F5.8°C 42.0°F5.6°C 98% 3.0 mph E4.8 kmh E 9.0 mph14.5 kmh 29.94 in1013.9 mb 0.00 in0.0 mm 0.00 in0.0 mm 0.00 in0.0 mm
08:40 AM 43.1°F6.2°C 42.3°F5.7°C 97% 2.8 mph ENE4.5 kmh ENE 9.0 mph14.5 kmh 29.94 in1013.9 mb 0.00 in0.0 mm 0.00 in0.0 mm 0.00 in0.0 mm
08:50 AM 43.8°F6.6°C 42.7°F5.9°C 96% 3.7 mph NE6.0 kmh NE 9.0 mph14.5 kmh 29.94 in1013.9 mb 0.00 in0.0 mm 0.00 in0.0 mm 0.00 in0.0 mm
09:00 AM 43.5°F6.4°C 42.4°F5.8°C 96% 4.0 mph ENE6.4 kmh ENE 10.0 mph16.1 kmh 29.95 in1014.2 mb 0.00 in0.0 mm 0.00 in0.0 mm 0.00 in0.0 mm
09:10 AM 43.5°F6.4°C 42.4°F5.8°C 96% 3.2 mph NE5.1 kmh NE 8.0 mph12.9 kmh 29.95 in1014.2 mb 0.00 in0.0 mm 0.00 in0.0 mm 0.00 in0.0 mm
09:20 AM 43.9°F6.6°C 42.6°F5.9°C 95% 2.3 mph E3.7 kmh E 5.0 mph8.0 kmh 29.96 in1014.6 mb 0.00 in0.0 mm 0.00 in0.0 mm 0.00 in0.0 mm
09:30 AM 44.6°F7.0°C 43.0°F6.1°C 94% 2.0 mph E3.2 kmh E 8.0 mph12.9 kmh 29.96 in1014.6 mb 0.00 in0.0 mm 0.00 in0.0 mm 0.00 in0.0 mm
09:40 AM 45.5°F7.5°C 43.6°F6.4°C 93% 2.3 mph NE3.7 kmh NE 6.0 mph9.7 kmh 29.96 in1014.6 mb 0.00 in0.0 mm 0.00 in0.0 mm 0.00 in0.0 mm
09:50 AM 46.0°F7.8°C 43.8°F6.6°C 92% 2.1 mph E3.4 kmh E 9.0 mph14.5 kmh 29.96 in1014.6 mb 0.00 in0.0 mm 0.00 in0.0 mm 0.00 in0.0 mm
10:00 AM 46.1°F7.8°C 43.9°F6.6°C 92% 3.4 mph ENE5.5 kmh ENE 9.0 mph14.5 kmh 29.96 in1014.6 mb 0.00 in0.0 mm 0.00 in0.0 mm 0.00 in0.0 mm
10:10 AM 46.7°F8.2°C 44.2°F6.8°C 91% 3.1 mph E5.0 kmh E 8.0 mph12.9 kmh 29.96 in1014.6 mb 0.00 in0.0 mm 0.00 in0.0 mm 0.00 in0.0 mm
10:20 AM 46.8°F8.2°C 44.0°F6.7°C 90% 3.8 mph ENE6.1 kmh ENE 9.0 mph14.5 kmh 29.97 in1014.9 mb 0.00 in0.0 mm 0.00 in0.0 mm 0.00 in0.0 mm
10:30 AM 47.4°F8.6°C 44.3°F6.8°C 89% 3.2 mph ENE5.1 kmh ENE 8.0 mph12.9 kmh 29.97 in1014.9 mb 0.00 in0.0 mm 0.00 in0.0 mm 0.00 in0.0 mm
10:40 AM 47.7°F8.7°C 44.6°F7.0°C 89% 2.7 mph NE4.3 kmh NE 6.0 mph9.7 kmh 29.96 in1014.6 mb 0.00 in0.0 mm 0.00 in0.0 mm 0.00 in0.0 mm
10:50 AM 48.6°F9.2°C 45.2°F7.3°C 88% 3.0 mph NE4.8 kmh NE 8.0 mph12.9 kmh 29.96 in1014.6 mb 0.00 in0.0 mm 0.00 in0.0 mm 0.00 in0.0 mm
11:00 AM 48.5°F9.2°C 44.5°F6.9°C 86% 3.4 mph NE5.5 kmh NE 8.0 mph12.9 kmh 29.96 in1014.6 mb 0.00 in0.0 mm 0.00 in0.0 mm 0.00 in0.0 mm
11:10 AM 48.5°F9.2°C 44.8°F7.1°C 87% 3.9 mph NE6.3 kmh NE 7.0 mph11.3 kmh 29.96 in1014.6 mb 0.00 in0.0 mm 0.00 in0.0 mm 0.00 in0.0 mm
11:20 AM 48.9°F9.4°C 44.9°F7.2°C 86% 3.1 mph NE5.0 kmh NE 8.0 mph12.9 kmh 29.95 in1014.2 mb 0.00 in0.0 mm 0.00 in0.0 mm 0.00 in0.0 mm
11:30 AM 49.1°F9.5°C 45.1°F7.3°C 86% 3.4 mph NE5.5 kmh NE 10.0 mph16.1 kmh 29.94 in1013.9 mb 0.00 in0.0 mm 0.00 in0.0 mm 0.00 in0.0 mm
11:40 AM 49.4°F9.7°C 45.4°F7.4°C 86% 3.0 mph NE4.8 kmh NE 7.0 mph11.3 kmh 29.94 in1013.9 mb 0.00 in0.0 mm 0.00 in0.0 mm 0.00 in0.0 mm
11:50 AM 49.5°F9.7°C 45.2°F7.3°C 85% 3.0 mph E4.8 kmh E 8.0 mph12.9 kmh 29.93 in1013.5 mb 0.00 in0.0 mm 0.00 in0.0 mm 0.00 in0.0 mm
12:00 PM 50.1°F10.1°C 46.1°F7.8°C 86% 2.8 mph ENE4.5 kmh ENE 10.0 mph16.1 kmh 29.93 in1013.5 mb 0.00 in0.0 mm 0.00 in0.0 mm 0.00 in0.0 mm
12:10 PM 50.5°F10.3°C 46.2°F7.9°C 85% 3.7 mph E6.0 kmh E 11.0 mph17.7 kmh 29.93 in1013.5 mb 0.00 in0.0 mm 0.00 in0.0 mm 0.00 in0.0 mm
12:20 PM 50.7°F10.4°C 46.0°F7.8°C 84% 3.3 mph ENE5.3 kmh ENE 8.0 mph12.9 kmh 29.93 in1013.5 mb 0.00 in0.0 mm 0.00 in0.0 mm 0.00 in0.0 mm
12:30 PM 51.0°F10.6°C 47.0°F8.3°C 86% 3.6 mph ENE5.8 kmh ENE 7.0 mph11.3 kmh 29.91 in1012.9 mb 0.00 in0.0 mm 0.00 in0.0 mm 0.00 in0.0 mm
12:40 PM 51.9°F11.1°C 46.9°F8.3°C 83% 3.3 mph NE5.3 kmh NE 8.0 mph12.9 kmh 29.91 in1012.9 mb 0.00 in0.0 mm 0.00 in0.0 mm 0.00 in0.0 mm
12:50 PM 51.9°F11.1°C 46.9°F8.3°C 83% 3.4 mph E5.5 kmh E 8.0 mph12.9 kmh 29.90 in1012.5 mb 0.00 in0.0 mm 0.00 in0.0 mm 0.00 in0.0 mm
01:00 PM 51.9°F11.1°C 47.2°F8.4°C 84% 3.0 mph ENE4.8 kmh ENE 9.0 mph14.5 kmh 29.89 in1012.2 mb 0.00 in0.0 mm 0.00 in0.0 mm 0.00 in0.0 mm
01:10 PM 51.7°F10.9°C 47.0°F8.3°C 84% 2.5 mph ESE4.0 kmh ESE 5.0 mph8.0 kmh 29.89 in1012.2 mb 0.00 in0.0 mm 0.00 in0.0 mm 0.00 in0.0 mm
01:20 PM 51.6°F10.9°C 46.9°F8.3°C 84% 2.3 mph E3.7 kmh E 7.0 mph11.3 kmh 29.88 in1011.9 mb 0.00 in0.0 mm 0.00 in0.0 mm 0.00 in0.0 mm
01:30 PM 51.7°F10.9°C 47.0°F8.3°C 84% 2.5 mph ESE4.0 kmh ESE 5.0 mph8.0 kmh 29.88 in1011.9 mb 0.00 in0.0 mm 0.00 in0.0 mm 0.00 in0.0 mm
01:40 PM 51.9°F11.1°C 47.2°F8.4°C 84% 2.0 mph ESE3.2 kmh ESE 6.0 mph9.7 kmh 29.87 in1011.5 mb 0.00 in0.0 mm 0.00 in0.0 mm 0.00 in0.0 mm
01:50 PM 51.9°F11.1°C 48.2°F9.0°C 87% 2.0 mph NE3.2 kmh NE 5.0 mph8.0 kmh 29.86 in1011.2 mb 0.02 in0.5 mm 0.12 in3.0 mm 0.02 in0.5 mm
02:00 PM 50.8°F10.4°C 48.6°F9.2°C 92% 1.2 mph E1.9 kmh E 5.0 mph8.0 kmh 29.86 in1011.2 mb 0.04 in1.0 mm 0.02 in0.5 mm 0.04 in1.0 mm
02:10 PM 50.1°F10.1°C 49.0°F9.4°C 96% 0.7 mph ESE1.1 kmh ESE 3.0 mph4.8 kmh 29.86 in1011.2 mb 0.04 in1.0 mm 0.00 in0.0 mm 0.04 in1.0 mm
02:20 PM 49.7°F9.8°C 49.4°F9.7°C 99% Calm Calm 4.0 mph6.4 kmh 29.86 in1011.2 mb 0.05 in1.3 mm 0.06 in1.5 mm 0.05 in1.3 mm
02:30 PM 49.4°F9.7°C 49.4°F9.7°C 100% Calm Calm 2.0 mph3.2 kmh 29.86 in1011.2 mb 0.06 in1.5 mm 0.06 in1.5 mm 0.06 in1.5 mm
02:40 PM 49.4°F9.7°C 49.4°F9.7°C 100% Calm Calm 2.0 mph3.2 kmh 29.86 in1011.2 mb 0.06 in1.5 mm 0.00 in0.0 mm 0.06 in1.5 mm
02:50 PM 49.2°F9.6°C 49.2°F9.6°C 100% Calm Calm 3.0 mph4.8 kmh 29.85 in1010.8 mb 0.05 in1.3 mm 0.00 in0.0 mm 0.07 in1.8 mm
03:00 PM 49.1°F9.5°C 49.1°F9.5°C 100% 0.9 mph ESE1.4 kmh ESE 2.0 mph3.2 kmh 29.84 in1010.5 mb 0.05 in1.3 mm 0.00 in0.0 mm 0.09 in2.3 mm
03:10 PM 48.8°F9.3°C 48.8°F9.3°C 100% Calm Calm 2.0 mph3.2 kmh 29.84 in1010.5 mb 0.10 in2.5 mm 0.30 in7.6 mm 0.14 in3.6 mm
03:20 PM 48.5°F9.2°C 48.5°F9.2°C 100% 0.2 mph ESE0.3 kmh ESE 4.0 mph6.4 kmh 29.83 in1010.2 mb 0.14 in3.6 mm 0.24 in6.1 mm 0.19 in4.8 mm
03:30 PM 48.2°F9.0°C 48.2°F9.0°C 100% 1.1 mph ESE1.8 kmh ESE 4.0 mph6.4 kmh 29.84 in1010.5 mb 0.17 in4.3 mm 0.18 in4.6 mm 0.23 in5.8 mm
03:40 PM 48.2°F9.0°C 48.2°F9.0°C 100% 1.6 mph ENE2.6 kmh ENE 6.0 mph9.7 kmh 29.85 in1010.8 mb 0.22 in5.6 mm 0.30 in7.6 mm 0.28 in7.1 mm
03:50 PM 48.0°F8.9°C 48.0°F8.9°C 100% 4.6 mph WNW7.4 kmh WNW 10.0 mph16.1 kmh 29.86 in1011.2 mb 0.27 in6.9 mm 0.30 in7.6 mm 0.34 in8.6 mm
04:00 PM 47.9°F8.8°C 47.9°F8.8°C 100% 4.7 mph NW7.6 kmh NW 6.0 mph9.7 kmh 29.85 in1010.8 mb 0.31 in7.9 mm 0.05 in1.3 mm 0.40 in10.2 mm
04:10 PM 47.1°F8.4°C 47.1°F8.4°C 100% 3.8 mph N6.1 kmh N 7.0 mph11.3 kmh 29.84 in1010.5 mb 0.28 in7.1 mm 0.00 in0.0 mm 0.42 in10.7 mm
04:20 PM 46.7°F8.2°C 46.7°F8.2°C 100% 4.0 mph NNE6.4 kmh NNE 8.0 mph12.9 kmh 29.84 in1010.5 mb 0.24 in6.1 mm 0.00 in0.0 mm 0.43 in10.9 mm
04:30 PM 46.4°F8.0°C 46.4°F8.0°C 100% 4.0 mph NNE6.4 kmh NNE 8.0 mph12.9 kmh 29.84 in1010.5 mb 0.21 in5.3 mm 0.00 in0.0 mm 0.44 in11.2 mm
04:40 PM 46.1°F7.8°C 46.1°F7.8°C 100% 4.0 mph NE6.4 kmh NE 8.0 mph12.9 kmh 29.84 in1010.5 mb 0.16 in4.1 mm 0.00 in0.0 mm 0.44 in11.2 mm
04:50 PM 45.8°F7.7°C 45.8°F7.7°C 100% 3.7 mph NE6.0 kmh NE 9.0 mph14.5 kmh 29.84 in1010.5 mb 0.11 in2.8 mm 0.00 in0.0 mm 0.45 in11.4 mm
05:00 PM 45.4°F7.4°C 45.4°F7.4°C 100% 4.3 mph NE6.9 kmh NE 10.0 mph16.1 kmh 29.85 in1010.8 mb 0.06 in1.5 mm 0.00 in0.0 mm 0.46 in11.7 mm
05:10 PM 44.9°F7.2°C 44.9°F7.2°C 100% 4.8 mph NE7.7 kmh NE 9.0 mph14.5 kmh 29.85 in1010.8 mb 0.06 in1.5 mm 0.00 in0.0 mm 0.48 in12.2 mm
05:20 PM 44.5°F6.9°C 44.5°F6.9°C 100% 4.0 mph NE6.4 kmh NE 9.0 mph14.5 kmh 29.85 in1010.8 mb 0.06 in1.5 mm 0.00 in0.0 mm 0.49 in12.4 mm
05:30 PM 44.1°F6.7°C 44.1°F6.7°C 100% 4.0 mph NE6.4 kmh NE 7.0 mph11.3 kmh 29.86 in1011.2 mb 0.06 in1.5 mm 0.00 in0.0 mm 0.50 in12.7 mm
05:40 PM 43.6°F6.4°C 43.6°F6.4°C 100% 4.0 mph NNE6.4 kmh NNE 8.0 mph12.9 kmh 29.87 in1011.5 mb 0.07 in1.8 mm 0.06 in1.5 mm 0.51 in13.0 mm
05:50 PM 43.5°F6.4°C 43.5°F6.4°C 100% 4.3 mph NE6.9 kmh NE 9.0 mph14.5 kmh 29.87 in1011.5 mb 0.07 in1.8 mm 0.00 in0.0 mm 0.52 in13.2 mm
06:00 PM 43.4°F6.3°C 43.4°F6.3°C 100% 3.4 mph N5.5 kmh N 8.0 mph12.9 kmh 29.88 in1011.9 mb 0.06 in1.5 mm 0.00 in0.0 mm 0.52 in13.2 mm
06:10 PM 42.8°F6.0°C 42.8°F6.0°C 100% 3.5 mph N5.6 kmh N 6.0 mph9.7 kmh 29.88 in1011.9 mb 0.06 in1.5 mm 0.00 in0.0 mm 0.54 in13.7 mm
06:20 PM 42.5°F5.8°C 42.5°F5.8°C 100% 3.0 mph N4.8 kmh N 7.0 mph11.3 kmh 29.87 in1011.5 mb 0.07 in1.8 mm 0.06 in1.5 mm 0.56 in14.2 mm
06:30 PM 42.1°F5.6°C 42.1°F5.6°C 100% 3.0 mph NE4.8 kmh NE 8.0 mph12.9 kmh 29.86 in1011.2 mb 0.09 in2.3 mm 0.12 in3.0 mm 0.59 in15.0 mm
06:40 PM 41.8°F5.4°C 41.8°F5.4°C 100% 3.5 mph NE5.6 kmh NE 9.0 mph14.5 kmh 29.85 in1010.8 mb 0.09 in2.3 mm 0.00 in0.0 mm 0.60 in15.2 mm
06:50 PM 41.5°F5.3°C 41.5°F5.3°C 100% 4.3 mph NE6.9 kmh NE 11.0 mph17.7 kmh 29.86 in1011.2 mb 0.09 in2.3 mm 0.00 in0.0 mm 0.61 in15.5 mm
07:00 PM 41.2°F5.1°C 41.2°F5.1°C 100% 4.0 mph NNE6.4 kmh NNE 10.0 mph16.1 kmh 29.89 in1012.2 mb 0.09 in2.3 mm 0.00 in0.0 mm 0.61 in15.5 mm
07:10 PM 40.9°F4.9°C 40.9°F4.9°C 100% 5.7 mph N9.2 kmh N 10.0 mph16.1 kmh 29.89 in1012.2 mb 0.07 in1.8 mm 0.00 in0.0 mm 0.61 in15.5 mm
07:20 PM 40.2°F4.6°C 40.2°F4.6°C 100% 7.0 mph N11.3 kmh N 12.0 mph19.3 kmh 29.89 in1012.2 mb 0.04 in1.0 mm 0.00 in0.0 mm 0.61 in15.5 mm
07:30 PM 39.6°F4.2°C 39.6°F4.2°C 100% 7.0 mph N11.3 kmh N 12.0 mph19.3 kmh 29.90 in1012.5 mb 0.03 in0.8 mm 0.00 in0.0 mm 0.62 in15.7 mm
07:40 PM 39.1°F3.9°C 39.1°F3.9°C 100% 6.5 mph N10.5 kmh N 11.0 mph17.7 kmh 29.91 in1012.9 mb 0.02 in0.5 mm 0.00 in0.0 mm 0.62 in15.7 mm
07:50 PM 38.8°F3.8°C 38.8°F3.8°C 100% 7.0 mph N11.3 kmh N 12.0 mph19.3 kmh 29.91 in1012.9 mb 0.01 in0.3 mm 0.00 in0.0 mm 0.62 in15.7 mm
08:00 PM 38.3°F3.5°C 38.3°F3.5°C 100% 6.3 mph N10.1 kmh N 11.0 mph17.7 kmh 29.89 in1012.2 mb 0.01 in0.3 mm 0.00 in0.0 mm 0.62 in15.7 mm
08:10 PM 38.2°F3.4°C 38.2°F3.4°C 100% 5.0 mph NNE8.0 kmh NNE 9.0 mph14.5 kmh 29.91 in1012.9 mb 0.02 in0.5 mm 0.06 in1.5 mm 0.63 in16.0 mm
08:20 PM 38.1°F3.4°C 38.1°F3.4°C 100% 5.1 mph N8.2 kmh N 10.0 mph16.1 kmh 29.92 in1013.2 mb 0.02 in0.5 mm 0.00 in0.0 mm 0.63 in16.0 mm
08:30 PM 37.8°F3.2°C 37.8°F3.2°C 100% 6.0 mph N9.7 kmh N 9.0 mph14.5 kmh 29.93 in1013.5 mb 0.01 in0.3 mm 0.00 in0.0 mm 0.63 in16.0 mm
08:40 PM 37.6°F3.1°C 37.6°F3.1°C 100% 5.3 mph N8.5 kmh N 12.0 mph19.3 kmh 29.94 in1013.9 mb 0.01 in0.3 mm 0.00 in0.0 mm 0.63 in16.0 mm
08:50 PM 37.3°F2.9°C 37.3°F2.9°C 100% 6.3 mph N10.1 kmh N 10.0 mph16.1 kmh 29.95 in1014.2 mb 0.01 in0.3 mm 0.00 in0.0 mm 0.63 in16.0 mm
09:00 PM 37.2°F2.9°C 37.2°F2.9°C 100% 5.8 mph N9.3 kmh N 9.0 mph14.5 kmh 29.96 in1014.6 mb 0.01 in0.3 mm 0.00 in0.0 mm 0.63 in16.0 mm
09:10 PM 37.1°F2.8°C 37.1°F2.8°C 100% 5.1 mph N8.2 kmh N 8.0 mph12.9 kmh 29.96 in1014.6 mb 0.00 in0.0 mm 0.00 in0.0 mm 0.63 in16.0 mm
09:20 PM 36.8°F2.7°C 36.8°F2.7°C 100% 5.0 mph NNE8.0 kmh NNE 11.0 mph17.7 kmh 29.95 in1014.2 mb 0.00 in0.0 mm 0.00 in0.0 mm 0.63 in16.0 mm
09:30 PM 36.6°F2.6°C 36.6°F2.6°C 100% 5.5 mph NNE8.9 kmh NNE 10.0 mph16.1 kmh 29.95 in1014.2 mb 0.01 in0.3 mm 0.06 in1.5 mm 0.64 in16.3 mm
09:40 PM 36.3°F2.4°C 36.3°F2.4°C 100% 5.5 mph NNE8.9 kmh NNE 10.0 mph16.1 kmh 29.93 in1013.5 mb 0.01 in0.3 mm 0.00 in0.0 mm 0.64 in16.3 mm
09:50 PM 35.9°F2.2°C 35.9°F2.2°C 100% 5.6 mph NNE9.0 kmh NNE 12.0 mph19.3 kmh 29.93 in1013.5 mb 0.01 in0.3 mm 0.00 in0.0 mm 0.64 in16.3 mm
10:00 PM 35.6°F2.0°C 35.6°F2.0°C 100% 6.2 mph NNE10.0 kmh NNE 11.0 mph17.7 kmh 29.94 in1013.9 mb 0.01 in0.3 mm 0.00 in0.0 mm 0.64 in16.3 mm
10:10 PM 35.5°F1.9°C 35.5°F1.9°C 100% 5.0 mph N8.0 kmh N 9.0 mph14.5 kmh 29.96 in1014.6 mb 0.01 in0.3 mm 0.00 in0.0 mm 0.64 in16.3 mm
10:20 PM 35.2°F1.8°C 35.2°F1.8°C 100% 5.0 mph N8.0 kmh N 9.0 mph14.5 kmh 29.97 in1014.9 mb 0.02 in0.5 mm 0.06 in1.5 mm 0.65 in16.5 mm
10:30 PM 35.0°F1.7°C 35.0°F1.7°C 100% 5.4 mph N8.7 kmh N 9.0 mph14.5 kmh 29.97 in1014.9 mb 0.01 in0.3 mm 0.00 in0.0 mm 0.65 in16.5 mm
10:40 PM 35.0°F1.7°C 35.0°F1.7°C 100% 6.5 mph N10.5 kmh N 8.0 mph12.9 kmh 29.98 in1015.2 mb 0.01 in0.3 mm 0.00 in0.0 mm 0.65 in16.5 mm
10:50 PM 34.7°F1.5°C 34.7°F1.5°C 100% 6.0 mph N9.7 kmh N 8.0 mph12.9 kmh 29.97 in1014.9 mb 0.01 in0.3 mm 0.00 in0.0 mm 0.65 in16.5 mm
11:00 PM 34.6°F1.4°C 34.6°F1.4°C 100% 7.0 mph N11.3 kmh N 11.0 mph17.7 kmh 29.97 in1014.9 mb 0.01 in0.3 mm 0.00 in0.0 mm 0.65 in16.5 mm
11:10 PM 34.6°F1.4°C 34.6°F1.4°C 100% 7.0 mph N11.3 kmh N 9.0 mph14.5 kmh 29.98 in1015.2 mb 0.01 in0.3 mm 0.00 in0.0 mm 0.65 in16.5 mm
11:20 PM 34.6°F1.4°C 34.6°F1.4°C 100% 6.7 mph N10.8 kmh N 10.0 mph16.1 kmh 29.98 in1015.2 mb 0.00 in0.0 mm 0.00 in0.0 mm 0.65 in16.5 mm
11:30 PM 34.4°F1.3°C 34.4°F1.3°C 100% 6.7 mph N10.8 kmh N 10.0 mph16.1 kmh 29.98 in1015.2 mb 0.00 in0.0 mm 0.00 in0.0 mm 0.65 in16.5 mm
11:40 PM 34.1°F1.2°C 34.1°F1.2°C 100% 6.6 mph N10.6 kmh N 11.0 mph17.7 kmh 29.97 in1014.9 mb 0.00 in0.0 mm 0.00 in0.0 mm 0.65 in16.5 mm
11:50 PM 34.0°F1.1°C 34.0°F1.1°C 100% 6.2 mph N10.0 kmh N 11.0 mph17.7 kmh 29.98 in1015.2 mb 0.00 in0.0 mm 0.00 in0.0 mm 0.65 in16.5 mm